Time;durP1;ratioP1;P1;durP2;ratioP2;P2;SDS_P1;SDS_P2;PMS_P1;PMS_P2;Temp;Humidity;BMP_temperature;BMP_pressure;BME280_temperature;BME280_humidity;BME280_pressure;Samples;Min_cycle;Max_cycle;Signal;HPM_P1;HPM_P2
2023/12/31 00:02:20;;;;;;;3.35;1.38;;;11.30;77.30;;;;;;5054552;28;20021;-65
2023/12/31 00:04:46;;;;;;;4.25;1.60;;;11.30;77.30;;;;;;5055665;28;20024;-65
2023/12/31 00:07:11;;;;;;;3.95;1.50;;;11.40;77.30;;;;;;5055101;28;20047;-65
2023/12/31 00:09:38;;;;;;;4.30;1.80;;;11.40;77.20;;;;;;5056832;28;20074;-65
2023/12/31 00:12:04;;;;;;;4.32;1.75;;;11.40;77.20;;;;;;5053818;28;20033;-65
2023/12/31 00:14:30;;;;;;;5.30;1.92;;;11.40;77.00;;;;;;5056899;28;20425;-65
2023/12/31 00:16:56;;;;;;;7.63;2.25;;;11.40;77.00;;;;;;5054581;28;20128;-65
2023/12/31 00:19:21;;;;;;;6.97;2.42;;;11.40;77.00;;;;;;5058359;28;20053;-65
2023/12/31 00:21:48;;;;;;;6.85;2.38;;;11.40;77.00;;;;;;5056669;28;20441;-65
2023/12/31 00:24:13;;;;;;;5.03;1.73;;;11.40;76.90;;;;;;5058266;28;20383;-65
2023/12/31 00:26:39;;;;;;;3.92;1.50;;;11.40;76.90;;;;;;5057779;28;20021;-64
2023/12/31 00:29:08;;;;;;;2.92;1.27;;;11.40;76.80;;;;;;5054008;28;20345;-65
2023/12/31 00:31:34;;;;;;;2.97;1.35;;;11.40;76.70;;;;;;5057086;28;20021;-65
2023/12/31 00:34:00;;;;;;;2.53;1.00;;;11.50;76.60;;;;;;5055972;28;20040;-65
2023/12/31 00:36:26;;;;;;;1.77;1.00;;;11.50;76.50;;;;;;5055892;28;20032;-65
2023/12/31 00:38:53;;;;;;;3.78;1.13;;;11.50;76.40;;;;;;5055540;28;20032;-65
2023/12/31 00:41:19;;;;;;;2.60;1.10;;;11.50;76.20;;;;;;5054715;28;20040;-65
2023/12/31 00:43:45;;;;;;;2.38;1.10;;;11.50;76.20;;;;;;5055599;28;20416;-65
2023/12/31 00:46:14;;;;;;;2.88;1.08;;;11.50;76.10;;;;;;5055835;28;20028;-67
2023/12/31 00:48:40;;;;;;;4.38;1.33;;;11.50;75.90;;;;;;5044556;28;20049;-65
2023/12/31 00:51:05;;;;;;;2.85;0.90;;;11.50;75.80;;;;;;5040072;28;20040;-65
2023/12/31 00:53:32;;;;;;;2.17;0.98;;;11.50;75.70;;;;;;5059036;28;20324;-65
2023/12/31 00:55:58;;;;;;;1.70;0.90;;;11.60;75.60;;;;;;5056309;28;20024;-65
2023/12/31 00:58:23;;;;;;;2.10;0.90;;;11.60;75.50;;;;;;5057150;28;20024;-65
2023/12/31 01:00:49;;;;;;;2.25;0.95;;;11.60;75.50;;;;;;5055046;28;20047;-65
2023/12/31 01:03:15;;;;;;;2.60;1.20;;;11.60;75.40;;;;;;5059309;28;20500;-65
2023/12/31 01:05:41;;;;;;;2.78;1.10;;;11.60;75.30;;;;;;5055126;28;20017;-65
2023/12/31 01:08:08;;;;;;;5.38;1.33;;;11.60;75.30;;;;;;5037215;28;20408;-65
2023/12/31 01:10:33;;;;;;;3.00;0.98;;;11.60;75.20;;;;;;5054328;28;20040;-65
2023/12/31 01:12:59;;;;;;;2.22;0.90;;;11.60;75.20;;;;;;5053567;28;20021;-65
2023/12/31 01:15:25;;;;;;;2.45;1.02;;;11.60;75.10;;;;;;5056273;28;20394;-65
2023/12/31 01:17:51;;;;;;;2.70;1.23;;;11.60;75.10;;;;;;5058915;28;20021;-65
2023/12/31 01:20:16;;;;;;;1.98;0.93;;;11.60;75.00;;;;;;5056507;28;20338;-65
2023/12/31 01:22:42;;;;;;;4.20;1.10;;;11.60;74.90;;;;;;5058032;28;20048;-65
2023/12/31 01:25:08;;;;;;;6.15;2.00;;;11.60;74.80;;;;;;5055483;28;20029;-65
2023/12/31 01:27:34;;;;;;;23.95;10.30;;;11.60;74.80;;;;;;5036852;28;20032;-65
2023/12/31 01:30:01;;;;;;;29.52;13.63;;;11.60;74.70;;;;;;5054820;28;20121;-65
2023/12/31 01:32:27;;;;;;;28.40;12.88;;;11.60;74.70;;;;;;5039216;28;20111;-65
2023/12/31 01:35:00;;;;;;;18.98;8.10;;;11.60;74.80;;;;;;5055587;28;20118;-65
2023/12/31 01:37:26;;;;;;;13.48;5.15;;;11.60;74.80;;;;;;5039540;28;20047;-65
2023/12/31 01:39:52;;;;;;;10.57;4.18;;;11.60;74.80;;;;;;5056818;28;20032;-65
2023/12/31 01:42:17;;;;;;;6.82;2.60;;;11.60;74.80;;;;;;5055597;28;20040;-65
2023/12/31 01:44:43;;;;;;;7.32;2.58;;;11.60;74.80;;;;;;5055542;28;20032;-65
2023/12/31 01:47:10;;;;;;;8.00;2.55;;;11.60;74.80;;;;;;5055498;28;20045;-65
2023/12/31 01:49:35;;;;;;;7.95;2.30;;;11.60;74.80;;;;;;5055482;28;20431;-65
2023/12/31 01:52:02;;;;;;;4.72;1.70;;;11.60;74.80;;;;;;5052055;28;21614;-65
2023/12/31 01:54:28;;;;;;;3.90;1.48;;;11.60;74.80;;;;;;5052268;28;20454;-65
2023/12/31 01:56:55;;;;;;;2.85;1.33;;;11.50;74.80;;;;;;5053855;28;20166;-65
2023/12/31 01:59:21;;;;;;;3.50;1.10;;;11.50;74.80;;;;;;5037461;28;20433;-65
2023/12/31 02:01:50;;;;;;;3.15;0.95;;;11.50;74.90;;;;;;5054958;28;20453;-65
2023/12/31 02:04:20;;;;;;;2.42;1.10;;;11.50;75.00;;;;;;5037442;28;20029;-64
2023/12/31 02:06:47;;;;;;;3.88;1.20;;;11.50;75.00;;;;;;5052916;28;20036;-65
2023/12/31 02:09:14;;;;;;;2.80;1.35;;;11.40;74.90;;;;;;5044909;28;20025;-65
2023/12/31 02:11:40;;;;;;;4.45;1.20;;;11.40;75.00;;;;;;5053636;28;20099;-65
2023/12/31 02:14:06;;;;;;;2.78;1.17;;;11.40;75.00;;;;;;5055835;28;20101;-65
2023/12/31 02:16:33;;;;;;;2.50;1.17;;;11.40;75.00;;;;;;5055580;28;20079;-65
2023/12/31 02:18:59;;;;;;;5.18;1.20;;;11.40;75.00;;;;;;5054773;28;20021;-65
2023/12/31 02:21:26;;;;;;;2.45;1.33;;;11.40;75.10;;;;;;5052111;28;20450;-65
2023/12/31 02:23:52;;;;;;;2.92;1.30;;;11.40;75.10;;;;;;5055935;28;20440;-65
2023/12/31 02:26:18;;;;;;;3.38;1.30;;;11.40;75.10;;;;;;5056118;28;20025;-65
2023/12/31 02:28:44;;;;;;;3.50;1.27;;;11.40;75.10;;;;;;5054354;28;20033;-65
2023/12/31 02:31:09;;;;;;;2.65;1.15;;;11.40;75.10;;;;;;5054110;28;20406;-65
2023/12/31 02:33:35;;;;;;;2.63;1.17;;;11.30;75.10;;;;;;5053524;28;20029;-65
2023/12/31 02:36:01;;;;;;;3.10;1.40;;;11.30;75.10;;;;;;5052960;28;20025;-65
2023/12/31 02:38:28;;;;;;;4.68;1.50;;;11.30;75.10;;;;;;5054501;28;20449;-65
2023/12/31 02:40:54;;;;;;;2.65;1.17;;;11.30;75.10;;;;;;5053778;28;20028;-64
2023/12/31 02:43:20;;;;;;;5.63;1.50;;;11.30;75.10;;;;;;5053347;28;20029;-65
2023/12/31 02:45:46;;;;;;;3.33;1.50;;;11.30;75.20;;;;;;5051985;28;20040;-65
2023/12/31 02:48:11;;;;;;;4.03;1.63;;;11.30;75.10;;;;;;5061139;28;20465;-64
2023/12/31 02:50:37;;;;;;;2.90;1.48;;;11.30;75.20;;;;;;5053611;28;20025;-65
2023/12/31 02:53:04;;;;;;;3.35;1.35;;;11.20;75.10;;;;;;5053634;28;20021;-65
2023/12/31 02:55:30;;;;;;;3.83;1.33;;;11.30;75.20;;;;;;5053251;28;20029;-64
2023/12/31 02:57:56;;;;;;;6.22;1.90;;;11.20;75.10;;;;;;5053265;28;20039;-65
2023/12/31 03:00:22;;;;;;;4.38;1.55;;;11.20;75.10;;;;;;5053466;28;20457;-64
2023/12/31 03:02:48;;;;;;;3.80;1.50;;;11.20;75.10;;;;;;5053143;28;20063;-65
2023/12/31 03:05:13;;;;;;;3.65;1.50;;;11.20;75.10;;;;;;5053547;28;20078;-64
2023/12/31 03:07:39;;;;;;;4.50;1.50;;;11.20;75.10;;;;;;5053261;28;20032;-65
2023/12/31 03:10:06;;;;;;;3.92;1.60;;;11.30;75.20;;;;;;5053833;28;20446;-65
2023/12/31 03:12:32;;;;;;;4.43;1.50;;;11.30;75.10;;;;;;5053592;28;20056;-65
2023/12/31 03:14:58;;;;;;;3.58;1.33;;;11.30;75.00;;;;;;5051909;28;20044;-65
2023/12/31 03:17:23;;;;;;;2.88;1.40;;;11.30;75.00;;;;;;5053433;28;20033;-65
2023/12/31 03:19:50;;;;;;;3.58;1.40;;;11.30;74.90;;;;;;5053053;28;20423;-65
2023/12/31 03:22:16;;;;;;;4.07;1.40;;;11.30;74.90;;;;;;5053096;28;20500;-65
2023/12/31 03:24:45;;;;;;;4.75;1.58;;;11.20;74.90;;;;;;5036276;28;20044;-64
2023/12/31 03:27:11;;;;;;;2.75;1.35;;;11.20;74.80;;;;;;5052959;28;20021;-65
2023/12/31 03:29:37;;;;;;;3.05;1.70;;;11.20;74.80;;;;;;5053359;28;20029;-64
2023/12/31 03:32:04;;;;;;;4.80;1.50;;;11.20;74.80;;;;;;5053068;28;20090;-64
2023/12/31 03:34:29;;;;;;;4.10;1.70;;;11.20;74.70;;;;;;5052638;28;20025;-65
2023/12/31 03:36:55;;;;;;;4.30;1.40;;;11.20;74.60;;;;;;5055370;28;20040;-65
2023/12/31 03:39:22;;;;;;;4.30;1.20;;;11.20;74.50;;;;;;5056896;28;20024;-65
2023/12/31 03:41:50;;;;;;;4.32;1.50;;;11.20;74.50;;;;;;5057904;28;20083;-65
2023/12/31 03:44:16;;;;;;;3.33;1.40;;;11.20;74.40;;;;;;5057855;28;20361;-65
2023/12/31 03:46:42;;;;;;;2.65;1.30;;;11.20;74.40;;;;;;5053722;28;20029;-65
2023/12/31 03:49:08;;;;;;;4.47;1.30;;;11.20;74.30;;;;;;5056742;28;20041;-65
2023/12/31 03:51:34;;;;;;;4.82;1.50;;;11.20;74.20;;;;;;5057356;28;20044;-65
2023/12/31 03:53:59;;;;;;;2.38;1.30;;;11.20;74.10;;;;;;5057708;28;20032;-65
2023/12/31 03:56:26;;;;;;;2.92;1.20;;;11.20;74.00;;;;;;5051780;28;20060;-64
2023/12/31 03:58:52;;;;;;;5.35;1.90;;;11.20;73.90;;;;;;5058507;28;20033;-65
2023/12/31 04:01:19;;;;;;;3.55;1.52;;;11.20;73.80;;;;;;5056077;28;20054;-65
2023/12/31 04:03:44;;;;;;;3.17;1.42;;;11.20;73.70;;;;;;5057539;28;20025;-65
2023/12/31 04:06:10;;;;;;;3.75;1.48;;;11.20;73.70;;;;;;5056293;28;20053;-65
2023/12/31 04:08:37;;;;;;;3.35;1.50;;;11.20;73.60;;;;;;5056546;28;20520;-65
2023/12/31 04:11:03;;;;;;;2.83;1.30;;;11.20;73.60;;;;;;5054814;28;20457;-65
2023/12/31 04:13:29;;;;;;;2.35;1.10;;;11.20;73.50;;;;;;5056397;28;20047;-65
2023/12/31 04:15:54;;;;;;;4.50;1.38;;;11.20;73.40;;;;;;5056723;28;20024;-65
2023/12/31 04:18:20;;;;;;;3.92;1.58;;;11.20;73.40;;;;;;5040863;28;20061;-65
2023/12/31 04:20:46;;;;;;;4.35;1.50;;;11.20;73.30;;;;;;5056877;28;20136;-64
2023/12/31 04:23:11;;;;;;;3.28;1.30;;;11.20;73.30;;;;;;5055235;28;20029;-65
2023/12/31 04:25:37;;;;;;;2.45;1.30;;;11.20;73.30;;;;;;5057133;28;20346;-64
2023/12/31 04:28:03;;;;;;;2.60;1.45;;;11.10;73.20;;;;;;5055707;28;20090;-65
2023/12/31 04:30:29;;;;;;;5.85;1.92;;;11.10;73.10;;;;;;5056927;28;20469;-65
2023/12/31 04:32:55;;;;;;;5.22;1.60;;;11.10;73.10;;;;;;5054888;28;20115;-64
2023/12/31 04:35:20;;;;;;;3.90;1.30;;;11.10;73.10;;;;;;5056131;28;20033;-65
2023/12/31 04:37:46;;;;;;;4.13;1.42;;;11.10;73.00;;;;;;5055358;28;20029;-65
2023/12/31 04:40:12;;;;;;;5.30;1.55;;;11.10;73.00;;;;;;5055810;28;20037;-65
2023/12/31 04:42:37;;;;;;;3.22;1.55;;;11.10;72.90;;;;;;5055103;28;20032;-65
2023/12/31 04:45:07;;;;;;;2.83;1.35;;;11.10;72.90;;;;;;5039492;28;20086;-65
2023/12/31 04:47:36;;;;;;;2.75;1.25;;;11.10;72.90;;;;;;5054623;28;20047;-65
2023/12/31 04:50:04;;;;;;;4.00;1.70;;;11.10;72.90;;;;;;5056471;28;20021;-64
2023/12/31 04:52:29;;;;;;;5.47;1.70;;;11.10;72.90;;;;;;5036709;28;20029;-65
2023/12/31 04:54:55;;;;;;;4.07;1.73;;;11.10;72.90;;;;;;5055695;28;20170;-65
2023/12/31 04:57:21;;;;;;;4.45;1.65;;;11.10;72.70;;;;;;5055162;28;20029;-65
2023/12/31 04:59:46;;;;;;;4.53;1.58;;;11.10;72.80;;;;;;5038832;28;20029;-64
2023/12/31 05:02:12;;;;;;;4.28;1.88;;;11.10;72.70;;;;;;5053504;28;20021;-64
2023/12/31 05:04:41;;;;;;;2.85;1.33;;;11.10;72.70;;;;;;5055377;28;20112;-65
2023/12/31 05:07:11;;;;;;;3.97;1.52;;;11.10;72.70;;;;;;5055124;28;20104;-65
2023/12/31 05:09:37;;;;;;;3.63;1.70;;;11.10;72.70;;;;;;5056438;28;20029;-65
2023/12/31 05:12:02;;;;;;;3.90;1.63;;;11.10;72.70;;;;;;5056508;28;20036;-65
2023/12/31 05:14:28;;;;;;;3.30;1.55;;;11.10;72.70;;;;;;5053822;28;20032;-64
2023/12/31 05:16:54;;;;;;;4.60;1.70;;;11.10;72.70;;;;;;5056004;28;20025;-64
2023/12/31 05:19:20;;;;;;;4.68;1.75;;;11.10;72.70;;;;;;5055120;28;20115;-64
2023/12/31 05:21:45;;;;;;;4.18;1.92;;;11.10;72.70;;;;;;5055026;28;20033;-65
2023/12/31 05:24:11;;;;;;;3.20;1.42;;;11.10;72.80;;;;;;5054512;28;20017;-64
2023/12/31 05:26:37;;;;;;;5.65;1.80;;;11.10;72.90;;;;;;5055188;28;20025;-64
2023/12/31 05:29:03;;;;;;;3.35;1.50;;;11.10;72.90;;;;;;5058987;28;20177;-64
2023/12/31 05:31:29;;;;;;;4.72;1.83;;;11.10;73.00;;;;;;5047596;28;20037;-64
2023/12/31 05:33:55;;;;;;;4.57;2.00;;;11.00;73.00;;;;;;5041958;28;20025;-65
2023/12/31 05:36:21;;;;;;;4.93;2.13;;;11.00;73.10;;;;;;5074701;28;20097;-65
2023/12/31 05:38:47;;;;;;;6.70;2.20;;;11.10;73.20;;;;;;5064308;28;20033;-64
2023/12/31 05:41:12;;;;;;;7.93;2.50;;;11.10;73.20;;;;;;5046236;28;20033;-64
2023/12/31 05:43:38;;;;;;;4.72;2.30;;;11.10;73.30;;;;;;5055410;28;20017;-65
2023/12/31 05:46:04;;;;;;;4.85;2.13;;;11.10;73.40;;;;;;5052517;28;20042;-65
2023/12/31 05:48:29;;;;;;;5.53;2.17;;;11.00;73.30;;;;;;5050215;28;20403;-64
2023/12/31 05:50:55;;;;;;;4.65;2.30;;;11.10;73.40;;;;;;5053537;28;20486;-65
2023/12/31 05:53:21;;;;;;;4.88;2.08;;;11.10;73.40;;;;;;5054795;28;20052;-64
2023/12/31 05:55:48;;;;;;;7.50;2.10;;;11.10;73.50;;;;;;5052436;28;20086;-65
2023/12/31 05:58:13;;;;;;;4.75;2.13;;;11.10;73.50;;;;;;5048598;28;20017;-64
2023/12/31 06:00:39;;;;;;;7.20;2.50;;;11.10;73.50;;;;;;5041718;28;20079;-64
2023/12/31 06:03:05;;;;;;;6.38;2.83;;;11.10;73.60;;;;;;5037267;28;20331;-64
2023/12/31 06:05:31;;;;;;;6.28;2.55;;;11.10;73.70;;;;;;5040432;28;20029;-64
2023/12/31 06:07:57;;;;;;;5.50;2.15;;;11.10;73.70;;;;;;5037948;28;20032;-64
2023/12/31 06:10:22;;;;;;;6.75;2.70;;;11.10;74.40;;;;;;5028738;28;20025;-64
2023/12/31 06:12:49;;;;;;;5.20;2.40;;;11.10;73.70;;;;;;5044931;28;20132;-65
2023/12/31 06:15:14;;;;;;;5.13;2.28;;;11.10;73.80;;;;;;5041549;28;20829;-65
2023/12/31 06:17:40;;;;;;;5.40;2.30;;;11.10;73.80;;;;;;5047290;28;20095;-64
2023/12/31 06:20:06;;;;;;;5.03;2.35;;;11.10;73.80;;;;;;5052682;28;20369;-64
2023/12/31 06:22:35;;;;;;;5.80;2.17;;;11.20;73.90;;;;;;5055106;28;20118;-64
2023/12/31 06:25:02;;;;;;;4.70;2.28;;;11.20;73.80;;;;;;5054485;28;20013;-65
2023/12/31 06:27:28;;;;;;;6.68;2.47;;;11.20;73.80;;;;;;5054570;28;20471;-65
2023/12/31 06:29:54;;;;;;;5.95;2.50;;;11.20;73.70;;;;;;5053654;28;20056;-65
2023/12/31 06:32:20;;;;;;;4.90;2.20;;;11.20;73.80;;;;;;5055335;28;20053;-64
2023/12/31 06:34:46;;;;;;;5.65;2.47;;;11.20;73.80;;;;;;5054449;28;20453;-64
2023/12/31 06:37:12;;;;;;;5.20;2.42;;;11.20;73.80;;;;;;5054147;28;20065;-64
2023/12/31 06:39:42;;;;;;;6.15;2.35;;;11.20;73.80;;;;;;5053486;28;20057;-65
2023/12/31 06:42:07;;;;;;;7.20;2.83;;;11.20;73.90;;;;;;5037396;28;20104;-64
2023/12/31 06:44:33;;;;;;;7.57;3.25;;;11.10;73.90;;;;;;5054128;28;20132;-65
2023/12/31 06:46:59;;;;;;;5.50;2.53;;;11.10;73.90;;;;;;5054475;28;20509;-64
2023/12/31 06:49:25;;;;;;;6.93;2.45;;;11.20;74.00;;;;;;5053842;28;20165;-65
2023/12/31 06:51:50;;;;;;;7.00;2.83;;;11.20;74.00;;;;;;5053542;28;20064;-64
2023/12/31 06:54:16;;;;;;;5.72;2.45;;;11.20;74.00;;;;;;5052738;28;20086;-64
2023/12/31 06:56:42;;;;;;;4.85;2.45;;;11.10;74.00;;;;;;5054279;28;20044;-64
2023/12/31 06:59:08;;;;;;;5.03;2.58;;;11.10;74.00;;;;;;5052606;28;20036;-64
2023/12/31 07:01:33;;;;;;;6.25;2.45;;;11.10;74.00;;;;;;5059072;28;20073;-65
2023/12/31 07:03:59;;;;;;;6.03;2.60;;;11.10;74.00;;;;;;5063463;28;20480;-65
2023/12/31 07:06:25;;;;;;;5.60;2.42;;;11.10;74.00;;;;;;5052119;28;20079;-65
2023/12/31 07:08:50;;;;;;;5.55;2.50;;;11.10;74.00;;;;;;5063797;28;20079;-65
2023/12/31 07:11:16;;;;;;;6.78;2.33;;;11.10;74.00;;;;;;5058021;28;20032;-66
2023/12/31 07:13:43;;;;;;;5.47;2.50;;;11.10;74.00;;;;;;5049309;28;20052;-65
2023/12/31 07:16:09;;;;;;;8.73;2.97;;;11.10;74.00;;;;;;5054170;28;20021;-65
2023/12/31 07:18:36;;;;;;;6.10;2.78;;;11.10;74.00;;;;;;5056312;28;20351;-64
2023/12/31 07:21:02;;;;;;;5.97;2.60;;;11.10;74.10;;;;;;5045067;28;20029;-64
2023/12/31 07:23:28;;;;;;;5.88;2.67;;;11.10;74.00;;;;;;5069522;28;20063;-64
2023/12/31 07:25:54;;;;;;;6.43;2.55;;;11.10;74.00;;;;;;5074425;28;20055;-64
2023/12/31 07:28:19;;;;;;;6.72;2.97;;;11.10;74.10;;;;;;5056805;28;20119;-64
2023/12/31 07:30:46;;;;;;;6.00;2.85;;;11.10;74.10;;;;;;5055362;28;20033;-65
2023/12/31 07:33:12;;;;;;;6.00;2.50;;;11.10;74.10;;;;;;5055409;28;20470;-64
2023/12/31 07:35:38;;;;;;;5.97;2.70;;;11.10;74.10;;;;;;5052898;28;20025;-65
2023/12/31 07:38:06;;;;;;;6.47;2.78;;;11.10;74.00;;;;;;5063081;28;20342;-64
2023/12/31 07:40:32;;;;;;;6.43;2.55;;;11.20;74.10;;;;;;5057903;28;20067;-65
2023/12/31 07:42:58;;;;;;;5.63;2.50;;;11.10;74.00;;;;;;5054401;28;20122;-64
2023/12/31 07:45:23;;;;;;;5.85;2.92;;;11.10;74.10;;;;;;5053625;28;20326;-64
2023/12/31 07:47:49;;;;;;;6.68;2.85;;;11.10;74.10;;;;;;5053231;28;20450;-65
2023/12/31 07:50:15;;;;;;;7.28;2.90;;;11.10;74.10;;;;;;5053403;28;20460;-65
2023/12/31 07:52:41;;;;;;;9.18;2.70;;;11.10;74.10;;;;;;5053647;28;20349;-64
2023/12/31 07:55:10;;;;;;;7.35;3.05;;;11.20;74.10;;;;;;5053755;28;20484;-65
2023/12/31 07:57:36;;;;;;;6.00;2.78;;;11.10;74.00;;;;;;5052573;28;20028;-64
2023/12/31 08:00:06;;;;;;;5.70;2.55;;;11.10;74.10;;;;;;5053933;28;20037;-65
2023/12/31 08:02:37;;;;;;;7.07;2.75;;;11.10;74.20;;;;;;5054336;28;20162;-65
2023/12/31 08:05:03;;;;;;;6.95;2.55;;;11.10;74.20;;;;;;5048531;28;20062;-65
2023/12/31 08:07:29;;;;;;;5.80;2.83;;;11.20;74.30;;;;;;5033445;28;20036;-66
2023/12/31 08:09:55;;;;;;;6.05;2.70;;;11.20;74.30;;;;;;5034471;28;20055;-65
2023/12/31 08:12:21;;;;;;;6.35;2.55;;;11.20;74.30;;;;;;5052443;28;20111;-65
2023/12/31 08:14:47;;;;;;;5.85;2.63;;;11.20;74.40;;;;;;5050619;28;20025;-65
2023/12/31 08:17:13;;;;;;;5.90;2.65;;;11.30;74.40;;;;;;5051852;28;20075;-65
2023/12/31 08:19:39;;;;;;;6.65;3.10;;;11.30;74.30;;;;;;5050578;28;20044;-65
2023/12/31 08:22:04;;;;;;;6.45;2.78;;;11.30;74.30;;;;;;5053494;28;20036;-64
2023/12/31 08:24:31;;;;;;;6.43;3.10;;;11.30;74.30;;;;;;5055663;28;20029;-65
2023/12/31 08:26:56;;;;;;;4.85;2.33;;;11.30;74.20;;;;;;5056373;28;20029;-65
2023/12/31 08:29:22;;;;;;;7.70;2.80;;;11.30;74.20;;;;;;5056776;28;20501;-65
2023/12/31 08:31:49;;;;;;;6.97;2.90;;;11.30;74.30;;;;;;5056335;28;20462;-65
2023/12/31 08:34:15;;;;;;;6.82;2.67;;;11.20;74.30;;;;;;5053825;28;20031;-65
2023/12/31 08:36:41;;;;;;;5.82;2.83;;;11.20;74.40;;;;;;5055381;28;20032;-65
2023/12/31 08:39:07;;;;;;;5.80;2.63;;;11.20;74.40;;;;;;5054829;28;20021;-65
2023/12/31 08:41:34;;;;;;;6.97;2.72;;;11.20;74.40;;;;;;5054403;28;20065;-65
2023/12/31 08:44:00;;;;;;;7.65;3.20;;;11.20;74.40;;;;;;5054063;28;20025;-64
2023/12/31 08:46:25;;;;;;;6.18;2.80;;;11.30;74.50;;;;;;5054927;28;20107;-64
2023/12/31 08:48:51;;;;;;;5.97;2.80;;;11.30;74.50;;;;;;5055925;28;20053;-65
2023/12/31 08:51:17;;;;;;;9.05;3.00;;;11.30;74.50;;;;;;5053954;28;20329;-65
2023/12/31 08:53:43;;;;;;;6.90;2.70;;;11.30;74.40;;;;;;5056230;28;20354;-64
2023/12/31 08:56:08;;;;;;;7.72;2.83;;;11.30;74.40;;;;;;5061728;28;20035;-65
2023/12/31 08:58:34;;;;;;;6.30;2.88;;;11.40;74.40;;;;;;5060113;28;20032;-64
2023/12/31 09:01:00;;;;;;;6.80;3.15;;;11.30;74.30;;;;;;5056189;28;20029;-64
2023/12/31 09:03:26;;;;;;;6.43;3.03;;;11.30;74.30;;;;;;5057073;28;20349;-64
2023/12/31 09:05:51;;;;;;;6.57;2.65;;;11.40;75.10;;;;;;5054027;28;20066;-64
2023/12/31 09:08:17;;;;;;;6.18;2.83;;;11.40;74.40;;;;;;5051380;28;20384;-64
2023/12/31 09:10:45;;;;;;;9.30;3.00;;;11.40;74.40;;;;;;5055448;28;20113;-64
2023/12/31 09:13:10;;;;;;;6.75;2.75;;;11.40;74.40;;;;;;5055934;28;20448;-64
2023/12/31 09:15:37;;;;;;;5.18;2.60;;;11.40;74.40;;;;;;5053985;28;20029;-64
2023/12/31 09:18:03;;;;;;;6.78;3.10;;;11.50;74.40;;;;;;5056762;28;20029;-64
2023/12/31 09:20:31;;;;;;;6.68;3.00;;;11.50;74.30;;;;;;5056583;28;20114;-64
2023/12/31 09:22:57;;;;;;;5.38;2.60;;;11.50;74.30;;;;;;5055981;28;20112;-64
2023/12/31 09:25:22;;;;;;;6.82;2.97;;;11.50;74.20;;;;;;5056473;28;20104;-64
2023/12/31 09:27:49;;;;;;;6.55;2.70;;;11.50;74.20;;;;;;5055348;28;20017;-64
2023/12/31 09:30:14;;;;;;;5.97;2.97;;;11.60;74.30;;;;;;5054006;28;20031;-64
2023/12/31 09:32:41;;;;;;;6.90;3.15;;;11.60;74.10;;;;;;5055605;28;20033;-64
2023/12/31 09:35:07;;;;;;;6.65;3.03;;;11.60;74.10;;;;;;5055629;28;20032;-65
2023/12/31 09:37:34;;;;;;;8.52;3.10;;;11.60;74.10;;;;;;5056415;28;20315;-64
2023/12/31 09:40:00;;;;;;;8.98;3.90;;;11.60;74.10;;;;;;5054337;28;20052;-64
2023/12/31 09:42:38;;;;;;;9.30;3.85;;;11.60;74.00;;;;;;5054796;28;20060;-65
2023/12/31 09:45:07;;;;;;;7.38;3.40;;;11.70;74.00;;;;;;5056019;28;20079;-65
2023/12/31 09:47:35;;;;;;;8.23;2.65;;;11.70;74.10;;;;;;5055635;28;20047;-65
2023/12/31 09:50:01;;;;;;;6.43;2.60;;;11.70;74.10;;;;;;5054844;28;20071;-65
2023/12/31 09:52:31;;;;;;;6.03;2.63;;;11.60;74.10;;;;;;5055535;28;20043;-65
2023/12/31 09:54:58;;;;;;;6.05;2.05;;;11.60;74.20;;;;;;5055394;28;20078;-64
2023/12/31 09:57:26;;;;;;;5.97;2.25;;;11.60;74.30;;;;;;5055037;28;20029;-64
2023/12/31 09:59:54;;;;;;;5.57;2.30;;;11.70;75.10;;;;;;5052801;28;20396;-64
2023/12/31 10:02:22;;;;;;;4.95;2.17;;;11.70;74.30;;;;;;5053356;28;20037;-64
2023/12/31 10:04:49;;;;;;;5.53;2.17;;;11.70;74.30;;;;;;5055253;28;20104;-64
2023/12/31 10:07:15;;;;;;;5.80;2.38;;;11.70;74.30;;;;;;5054094;28;20025;-65
2023/12/31 10:09:42;;;;;;;5.30;2.30;;;11.80;74.30;;;;;;5055805;28;20387;-64
2023/12/31 10:12:08;;;;;;;6.28;2.35;;;11.80;74.20;;;;;;5050481;28;20025;-64
2023/12/31 10:14:34;;;;;;;4.05;1.90;;;11.80;74.10;;;;;;5061090;28;20029;-65
2023/12/31 10:16:59;;;;;;;4.40;1.90;;;11.80;74.00;;;;;;5060581;28;20021;-64
2023/12/31 10:19:25;;;;;;;3.42;1.52;;;11.90;74.00;;;;;;5056610;28;20021;-65
2023/12/31 10:21:51;;;;;;;3.97;1.67;;;11.90;73.90;;;;;;5071080;28;20666;-65
2023/12/31 10:24:26;;;;;;;4.13;1.60;;;11.90;73.90;;;;;;5059587;28;20083;-65
2023/12/31 10:26:53;;;;;;;6.57;2.33;;;11.90;73.80;;;;;;5066644;28;20017;-65
2023/12/31 10:29:20;;;;;;;4.60;1.67;;;11.90;73.80;;;;;;5037380;28;20043;-65
2023/12/31 10:31:48;;;;;;;4.20;1.80;;;11.90;73.80;;;;;;5053524;28;20071;-65
2023/12/31 10:34:15;;;;;;;4.18;1.80;;;11.90;73.80;;;;;;5054781;28;20056;-65
2023/12/31 10:36:43;;;;;;;4.63;1.73;;;11.90;73.80;;;;;;5054693;28;20036;-65
2023/12/31 10:39:09;;;;;;;4.80;1.52;;;11.90;73.80;;;;;;5053919;28;20063;-65
2023/12/31 10:41:37;;;;;;;4.10;1.60;;;12.00;73.90;;;;;;5052707;28;20056;-65
2023/12/31 10:44:10;;;;;;;5.43;1.95;;;12.00;73.90;;;;;;5053945;28;20060;-65
2023/12/31 10:46:38;;;;;;;4.05;1.60;;;12.00;73.80;;;;;;5049370;28;20035;-65
2023/12/31 10:49:05;;;;;;;3.45;1.40;;;12.00;73.80;;;;;;5054276;28;20052;-64
2023/12/31 10:51:35;;;;;;;4.53;1.65;;;12.00;73.70;;;;;;5054658;28;20119;-64
2023/12/31 10:54:06;;;;;;;4.55;1.63;;;12.10;73.70;;;;;;5052750;28;20052;-65
2023/12/31 10:56:32;;;;;;;4.30;1.75;;;12.10;73.60;;;;;;5052545;28;20029;-65
2023/12/31 10:58:58;;;;;;;5.53;1.83;;;12.10;73.60;;;;;;5053639;28;20029;-64
2023/12/31 11:01:25;;;;;;;3.03;1.50;;;12.10;73.50;;;;;;5055244;28;20094;-65
2023/12/31 11:03:58;;;;;;;4.55;1.55;;;12.10;73.40;;;;;;5053805;28;20021;-65
2023/12/31 11:06:26;;;;;;;4.07;1.60;;;12.10;73.40;;;;;;5052440;28;20036;-65
2023/12/31 11:08:53;;;;;;;4.00;1.63;;;12.10;73.40;;;;;;5055968;28;20112;-65
2023/12/31 11:11:20;;;;;;;6.18;2.05;;;12.00;73.40;;;;;;5054234;28;20068;-65
2023/12/31 11:13:52;;;;;;;5.10;1.92;;;12.00;73.50;;;;;;5051021;28;20032;-65
2023/12/31 11:16:31;;;;;;;5.15;1.52;;;12.00;73.70;;;;;;5054703;28;20036;-64
2023/12/31 11:19:32;;;;;;;3.35;1.40;;;12.00;73.70;;;;;;5052697;28;20113;-64
2023/12/31 11:22:22;;;;;;;4.25;1.48;;;12.00;73.70;;;;;;5052654;28;20025;-65
2023/12/31 11:24:52;;;;;;;2.85;1.25;;;11.90;73.80;;;;;;5055308;28;20040;-65
2023/12/31 11:27:17;;;;;;;2.33;1.17;;;12.00;74.00;;;;;;5036296;28;20032;-64
2023/12/31 11:29:46;;;;;;;4.10;1.40;;;12.00;74.00;;;;;;5053759;28;20040;-65
2023/12/31 11:32:14;;;;;;;3.55;1.60;;;12.10;74.10;;;;;;5053324;28;20048;-65
2023/12/31 11:34:40;;;;;;;3.80;1.40;;;12.00;74.00;;;;;;5055397;28;20040;-65
2023/12/31 11:37:09;;;;;;;4.60;1.48;;;12.00;74.10;;;;;;5053819;28;20025;-65
2023/12/31 11:39:35;;;;;;;3.33;1.30;;;12.00;74.10;;;;;;5055152;28;20029;-65
2023/12/31 11:42:12;;;;;;;5.93;1.50;;;12.10;74.20;;;;;;5054342;28;20032;-65
2023/12/31 11:44:45;;;;;;;3.70;1.27;;;12.10;74.10;;;;;;5052374;28;20147;-65
2023/12/31 11:47:29;;;;;;;3.80;1.55;;;12.10;73.90;;;;;;5050418;28;20128;-65
2023/12/31 11:50:20;;;;;;;3.95;1.40;;;12.10;73.90;;;;;;5051025;28;20057;-65
2023/12/31 11:52:48;;;;;;;4.50;1.60;;;12.10;73.90;;;;;;5051385;28;20082;-65
2023/12/31 11:55:17;;;;;;;2.78;1.40;;;12.10;73.90;;;;;;5050603;28;20096;-65
2023/12/31 11:57:44;;;;;;;4.10;1.50;;;12.10;73.90;;;;;;5056156;28;20473;-65
2023/12/31 12:00:11;;;;;;;4.93;1.63;;;12.10;73.90;;;;;;5067633;28;20033;-65
2023/12/31 12:02:38;;;;;;;2.55;1.13;;;12.10;74.00;;;;;;5056345;28;20029;-65
2023/12/31 12:05:04;;;;;;;2.90;1.00;;;12.10;74.00;;;;;;5058194;28;20021;-65
2023/12/31 12:07:30;;;;;;;4.82;1.50;;;12.20;74.00;;;;;;5056932;28;20322;-65
2023/12/31 12:09:56;;;;;;;3.35;1.38;;;12.20;73.90;;;;;;5058003;28;20090;-65
2023/12/31 12:12:22;;;;;;;3.90;1.30;;;12.20;73.70;;;;;;5057021;28;20048;-64
2023/12/31 12:14:52;;;;;;;3.65;1.20;;;12.10;73.40;;;;;;5055995;28;20048;-65
2023/12/31 12:17:17;;;;;;;5.20;1.58;;;12.10;73.30;;;;;;5054924;28;20093;-65
2023/12/31 12:19:43;;;;;;;4.30;1.30;;;12.10;73.50;;;;;;5054220;28;20458;-65
2023/12/31 12:22:09;;;;;;;4.47;1.40;;;12.10;73.50;;;;;;5057632;28;20033;-65
2023/12/31 12:24:35;;;;;;;3.00;1.10;;;12.10;73.60;;;;;;5058168;28;20104;-65
2023/12/31 12:27:03;;;;;;;3.90;1.35;;;12.10;73.60;;;;;;5055347;28;20036;-65
2023/12/31 12:29:29;;;;;;;4.18;1.80;;;12.10;73.60;;;;;;5057029;28;20437;-65
2023/12/31 12:31:56;;;;;;;3.80;1.40;;;12.10;73.50;;;;;;5056106;28;20029;-66
2023/12/31 12:34:22;;;;;;;3.70;1.38;;;12.10;73.40;;;;;;5038733;28;20036;-65
2023/12/31 12:36:48;;;;;;;2.05;0.95;;;12.20;73.40;;;;;;5056366;28;20482;-65
2023/12/31 12:39:20;;;;;;;4.05;1.30;;;12.20;73.20;;;;;;5059519;28;20036;-65
2023/12/31 12:41:52;;;;;;;;;;;12.20;73.00;;;;;;5055599;28;20469;-64
2023/12/31 12:44:20;;;;;;;2.92;1.20;;;12.20;73.00;;;;;;5054443;28;19909;-64
2023/12/31 12:46:48;;;;;;;1.90;1.10;;;12.20;72.90;;;;;;5055199;28;20457;-65